Time;durP1;ratioP1;P1;durP2;ratioP2;P2;SDS_P1;SDS_P2;PMS_P1;PMS_P2;Temp;Humidity;BMP_temperature;BMP_pressure;BME280_temperature;BME280_humidity;BME280_pressure;Samples;Min_cycle;Max_cycle;Signal;HPM_P1;HPM_P2
2023/04/20 00:02:21;;;;;;;23.67;15.02;;;;;;;15.26;60.44;100795.34;5058267;28;20832;-82
2023/04/20 00:04:48;;;;;;;25.25;15.23;;;;;;;15.25;60.41;100777.66;5059395;28;20048;-83
2023/04/20 00:07:15;;;;;;;22.05;14.65;;;;;;;15.29;60.34;100790.53;5030039;28;20048;-82
2023/04/20 00:09:42;;;;;;;23.88;14.98;;;;;;;14.60;60.78;100706.88;5012472;28;20040;-82
2023/04/20 00:12:08;;;;;;;19.83;14.30;;;;;;;14.44;60.82;100674.72;5011722;28;20372;-84
2023/04/20 00:14:54;;;;;;;21.40;14.85;;;;;;;14.96;61.01;100769.00;5018895;28;20640;-84
2023/04/20 00:17:21;;;;;;;25.98;14.45;;;;;;;15.04;60.78;100786.09;5041386;28;20388;-83
2023/04/20 00:19:51;;;;;;;20.98;14.27;;;;;;;14.94;61.35;100775.53;5034781;28;20493;-83
2023/04/20 00:22:18;;;;;;;20.80;15.32;;;;;;;14.80;61.24;100768.94;5051238;28;20056;-84
2023/04/20 00:24:47;;;;;;;24.48;15.23;;;;;;;14.74;61.51;100757.06;5051470;28;20122;-83
2023/04/20 00:27:23;;;;;;;22.98;15.68;;;;;;;14.74;61.24;100759.72;5050646;28;20048;-81
2023/04/20 00:29:54;;;;;;;;;;;;;;;14.86;62.06;100803.06;5054244;28;20048;-83
2023/04/20 00:32:21;;;;;;;28.60;16.67;;;;;;;14.84;61.47;100793.53;5060307;28;19919;-81
2023/04/20 00:34:51;;;;;;;24.58;15.18;;;;;;;14.75;61.67;100788.13;5060903;28;20040;-83
2023/04/20 00:37:17;;;;;;;27.13;16.33;;;;;;;14.77;62.22;100805.84;5038056;28;20337;-81
2023/04/20 00:39:48;;;;;;;32.17;17.38;;;;;;;14.13;62.47;100701.94;5018245;28;20255;-83
2023/04/20 00:42:19;;;;;;;27.95;17.05;;;;;;;14.74;62.11;100796.31;5011637;28;20081;-82
2023/04/20 00:44:47;;;;;;;24.95;15.82;;;;;;;14.77;62.41;100803.16;5026356;28;20060;-82
2023/04/20 00:47:17;;;;;;;27.50;16.23;;;;;;;14.23;62.31;100705.31;5038479;28;20059;-83
2023/04/20 00:49:44;;;;;;;28.80;17.63;;;;;;;14.50;62.55;100744.38;5044973;28;20089;-83
2023/04/20 00:52:10;;;;;;;29.08;17.10;;;;;;;14.81;62.63;100792.00;5060170;28;20127;-83
2023/04/20 00:54:37;;;;;;;24.05;15.90;;;;;;;14.74;62.68;100786.44;5059645;28;20052;-83
2023/04/20 00:57:12;;;;;;;32.08;16.38;;;;;;;14.76;63.15;100797.00;5060625;28;20078;-82
2023/04/20 00:59:45;;;;;;;28.30;17.27;;;;;;;14.53;63.34;100754.75;5057663;28;20044;-82
2023/04/20 01:02:17;;;;;;;27.10;17.38;;;;;;;14.82;63.40;100798.19;5059177;28;20048;-81
2023/04/20 01:04:46;;;;;;;26.77;16.30;;;;;;;14.62;63.93;100752.16;5057968;28;20501;-83
2023/04/20 01:07:13;;;;;;;30.90;16.90;;;;;;;14.79;63.80;100771.78;5035490;28;20049;-83
2023/04/20 01:09:40;;;;;;;27.50;17.63;;;;;;;14.89;63.77;100783.19;5012752;28;20070;-83
2023/04/20 01:12:16;;;;;;;31.23;16.77;;;;;;;13.35;63.97;100534.66;5012591;28;20041;-84
2023/04/20 01:14:44;;;;;;;24.88;16.48;;;;;;;14.06;64.17;100656.34;5032026;28;20051;-83
2023/04/20 01:17:14;;;;;;;24.83;15.20;;;;;;;14.55;64.15;100740.44;5031981;28;20134;-81
2023/04/20 01:19:43;;;;;;;29.48;16.20;;;;;;;14.17;64.20;100681.91;5039887;28;20075;-81
2023/04/20 01:22:17;;;;;;;28.30;17.25;;;;;;;14.60;64.54;100763.00;5061420;28;20067;-84
2023/04/20 01:24:47;;;;;;;30.88;17.35;;;;;;;14.70;64.68;100785.09;5057618;28;20486;-82
2023/04/20 01:27:18;;;;;;;31.90;18.33;;;;;;;14.42;65.16;100755.03;5064245;28;20051;-81
2023/04/20 01:29:47;;;;;;;28.40;17.35;;;;;;;14.40;65.39;100754.34;5068422;28;20048;-83
2023/04/20 01:32:27;;;;;;;26.50;16.35;;;;;;;14.51;65.82;100782.59;5074514;28;20072;-83
2023/04/20 01:35:00;;;;;;;29.83;17.10;;;;;;;14.51;65.32;100774.59;5070265;28;20426;-84
2023/04/20 01:37:31;;;;;;;28.38;17.00;;;;;;;14.35;65.85;100758.47;5050518;28;20144;-83
2023/04/20 01:40:00;;;;;;;27.90;17.73;;;;;;;14.46;66.05;100787.59;5057992;28;20045;-84
2023/04/20 01:42:27;;;;;;;33.95;17.85;;;;;;;14.50;66.00;100786.28;5053934;28;20049;-82
2023/04/20 01:44:54;;;;;;;32.33;18.75;;;;;;;14.19;66.30;100744.00;5049267;28;20063;-83
2023/04/20 01:47:22;;;;;;;29.33;18.13;;;;;;;14.38;66.18;100763.50;5055938;28;20056;-81
2023/04/20 01:49:49;;;;;;;27.20;17.35;;;;;;;14.47;66.30;100784.75;5048022;28;20048;-84
2023/04/20 01:52:19;;;;;;;27.98;17.73;;;;;;;14.53;66.60;100789.50;5053811;28;20079;-84
2023/04/20 01:54:59;;;;;;;27.80;17.50;;;;;;;14.36;66.35;100754.81;5043129;28;20044;-84
2023/04/20 01:57:29;;;;;;;27.10;17.85;;;;;;;14.35;65.76;100731.78;5050014;28;20109;-81
2023/04/20 01:59:56;;;;;;;28.70;17.30;;;;;;;14.57;66.18;100774.00;5062837;28;20052;-84
2023/04/20 02:02:22;;;;;;;29.73;18.48;;;;;;;14.32;65.21;100712.41;5041479;28;20057;-85
2023/04/20 02:04:58;;;;;;;26.92;17.70;;;;;;;14.50;65.59;100720.34;5028240;28;20040;-84
2023/04/20 02:07:25;;;;;;;29.38;16.73;;;;;;;14.81;65.46;100751.09;5020793;28;20132;-84
2023/04/20 02:09:52;;;;;;;25.50;16.45;;;;;;;14.38;64.99;100678.03;5014123;28;20052;-84
2023/04/20 02:12:22;;;;;;;33.83;18.10;;;;;;;14.81;65.27;100748.41;5034347;28;20044;-84
2023/04/20 02:14:49;;;;;;;36.30;18.55;;;;;;;14.80;64.94;100747.56;5039170;28;20063;-85
2023/04/20 02:17:15;;;;;;;31.17;17.60;;;;;;;14.24;65.19;100661.59;5034445;28;20117;-85
2023/04/20 02:19:42;;;;;;;33.75;19.00;;;;;;;14.32;65.17;100677.69;5037273;28;20055;-84
2023/04/20 02:22:09;;;;;;;32.08;18.63;;;;;;;14.81;65.34;100756.44;5027020;28;20546;-83
2023/04/20 02:24:35;;;;;;;29.10;18.88;;;;;;;14.66;65.54;100724.97;5041508;28;20347;-84
2023/04/20 02:27:12;;;;;;;32.38;19.60;;;;;;;14.93;65.01;100749.78;5044547;28;20041;-85
2023/04/20 02:29:42;;;;;;;27.55;17.33;;;;;;;14.81;64.73;100735.88;5042151;28;20052;-83
2023/04/20 02:32:09;;;;;;;31.95;18.30;;;;;;;14.80;65.17;100730.69;5035941;28;20113;-85
2023/04/20 02:34:35;;;;;;;30.83;19.67;;;;;;;14.85;64.97;100749.75;5043416;28;20114;-83
2023/04/20 02:37:11;;;;;;;29.20;19.50;;;;;;;14.76;65.08;100730.19;5039335;28;20298;-85
2023/04/20 02:39:40;;;;;;;28.98;18.60;;;;;;;14.65;64.92;100723.28;5035802;28;20362;-84
2023/04/20 02:42:07;;;;;;;29.70;17.13;;;;;;;14.68;64.75;100722.94;5026053;28;20056;-82
2023/04/20 02:44:34;;;;;;;25.92;17.33;;;;;;;14.91;64.33;100741.09;5019856;28;20045;-84
2023/04/20 02:47:10;;;;;;;28.63;18.02;;;;;;;14.52;64.97;100709.50;5022285;28;20049;-85
2023/04/20 02:49:39;;;;;;;29.70;18.63;;;;;;;14.24;65.14;100682.97;5017585;28;20057;-84
2023/04/20 02:52:06;;;;;;;27.90;17.45;;;;;;;14.38;65.74;100726.13;5004443;28;20564;-82
2023/04/20 02:54:34;;;;;;;25.52;18.20;;;;;;;14.48;65.92;100751.69;5011856;28;20498;-83
2023/04/20 02:57:02;;;;;;;29.70;17.58;;;;;;;14.35;66.28;100742.47;5020910;28;20122;-84
2023/04/20 02:59:29;;;;;;;32.97;18.40;;;;;;;13.89;65.96;100655.41;5015929;28;20091;-83
2023/04/20 03:02:01;;;;;;;29.80;18.60;;;;;;;14.05;65.75;100678.69;5018911;28;20667;-84
2023/04/20 03:04:29;;;;;;;34.35;19.02;;;;;;;14.59;65.58;100744.44;5031779;28;20269;-82
2023/04/20 03:06:57;;;;;;;33.00;18.35;;;;;;;14.28;65.75;100700.34;5040841;28;20044;-84
2023/04/20 03:09:24;;;;;;;30.48;19.13;;;;;;;14.45;66.21;100749.34;5034728;28;20041;-84
2023/04/20 03:11:56;;;;;;;31.88;18.35;;;;;;;13.86;66.26;100663.72;5038776;28;20044;-82
2023/04/20 03:14:45;;;;;;;29.35;18.33;;;;;;;13.52;66.81;100626.28;5040368;28;20110;-84
2023/04/20 03:17:12;;;;;;;26.98;17.52;;;;;;;14.15;67.08;100750.69;5036351;28;20049;-83
2023/04/20 03:19:39;;;;;;;31.85;18.52;;;;;;;13.72;67.29;100682.97;5041943;28;20051;-85
2023/04/20 03:22:09;;;;;;;31.45;19.42;;;;;;;14.02;67.47;100747.56;5032633;28;20152;-85
2023/04/20 03:24:35;;;;;;;33.20;18.90;;;;;;;13.25;67.20;100629.84;5040609;28;20258;-84
2023/04/20 03:27:05;;;;;;;32.90;18.73;;;;;;;13.77;67.65;100726.03;5034282;28;20127;-84
2023/04/20 03:29:32;;;;;;;33.80;20.05;;;;;;;13.15;67.73;100623.75;5038856;28;20325;-83
2023/04/20 03:32:05;;;;;;;29.42;18.90;;;;;;;13.11;67.42;100603.75;5056750;28;20056;-85
2023/04/20 03:34:33;;;;;;;32.38;20.40;;;;;;;13.57;68.08;100690.69;5048680;28;20320;-85
2023/04/20 03:37:02;;;;;;;36.97;19.63;;;;;;;13.74;68.49;100734.34;5019378;28;20448;-84
2023/04/20 03:39:33;;;;;;;30.85;19.60;;;;;;;13.79;68.41;100741.88;5018367;28;20044;-84
2023/04/20 03:42:08;;;;;;;31.50;18.77;;;;;;;13.78;68.31;100735.69;5036325;28;20525;-84
2023/04/20 03:44:35;;;;;;;37.08;20.30;;;;;;;13.78;68.65;100741.03;5042806;28;20643;-84
2023/04/20 03:47:02;;;;;;;34.15;19.73;;;;;;;13.36;68.69;100704.31;5046487;28;20134;-83
2023/04/20 03:49:29;;;;;;;37.50;20.52;;;;;;;13.64;68.82;100736.22;5038582;28;20044;-86
2023/04/20 03:51:56;;;;;;;36.45;21.65;;;;;;;13.37;69.06;100702.47;5048248;28;20319;-85
2023/04/20 03:54:25;;;;;;;33.70;18.98;;;;;;;13.65;69.23;100751.25;5047281;28;20278;-85
2023/04/20 03:56:59;;;;;;;34.43;21.33;;;;;;;13.37;69.12;100700.66;5066681;28;20062;-82
2023/04/20 03:59:31;;;;;;;34.75;20.08;;;;;;;13.75;68.76;100751.19;5044525;28;20040;-83
2023/04/20 04:02:09;;;;;;;34.30;20.73;;;;;;;13.23;67.69;100634.53;5042427;28;20052;-84
2023/04/20 04:04:36;;;;;;;29.55;19.95;;;;;;;12.67;67.55;100542.38;5061354;28;20338;-85
2023/04/20 04:07:08;;;;;;;35.80;20.25;;;;;;;13.79;67.75;100729.38;5060004;28;20051;-85
2023/04/20 04:09:34;;;;;;;36.35;21.65;;;;;;;13.73;68.02;100711.31;5078240;28;20296;-84
2023/04/20 04:12:03;;;;;;;36.78;20.23;;;;;;;13.94;67.25;100739.50;5039008;28;20049;-84
2023/04/20 04:14:30;;;;;;;34.88;20.60;;;;;;;13.66;67.64;100712.91;5029483;28;20048;-84
2023/04/20 04:16:57;;;;;;;37.38;21.73;;;;;;;13.90;67.35;100745.13;5056235;28;20217;-84
2023/04/20 04:19:24;;;;;;;34.80;21.85;;;;;;;13.75;67.84;100719.16;5043352;28;20334;-83
2023/04/20 04:21:50;;;;;;;39.53;21.42;;;;;;;13.89;67.67;100747.97;5038349;28;20226;-84
2023/04/20 04:24:21;;;;;;;38.38;22.13;;;;;;;13.67;67.93;100722.59;5059343;28;20504;-84
2023/04/20 04:26:58;;;;;;;42.50;21.65;;;;;;;12.84;68.09;100610.84;5037826;28;20047;-85
2023/04/20 04:29:24;;;;;;;36.75;22.35;;;;;;;13.80;67.76;100764.91;5029918;28;20538;-86
2023/04/20 04:31:52;;;;;;;32.92;19.95;;;;;;;13.65;67.40;100713.91;5019324;28;20057;-84
2023/04/20 04:34:19;;;;;;;40.28;21.48;;;;;;;12.60;67.18;100556.31;5029082;28;20049;-84
2023/04/20 04:36:47;;;;;;;34.25;21.50;;;;;;;13.21;67.66;100641.81;5031551;28;20044;-84
2023/04/20 04:39:13;;;;;;;35.25;21.20;;;;;;;13.60;66.97;100690.38;5038794;28;20486;-85
2023/04/20 04:41:50;;;;;;;53.17;24.10;;;;;;;13.72;67.16;100714.97;5039570;28;20056;-83
2023/04/20 04:44:16;;;;;;;39.75;22.30;;;;;;;14.07;66.76;100761.28;5030726;28;20044;-83
2023/04/20 04:46:44;;;;;;;34.83;21.27;;;;;;;13.96;67.27;100745.53;5037766;28;20052;-85
2023/04/20 04:49:14;;;;;;;36.80;21.38;;;;;;;13.98;66.55;100738.19;5040679;28;20345;-83
2023/04/20 04:51:46;;;;;;;35.47;21.25;;;;;;;13.69;66.79;100699.28;5033799;28;20044;-84
2023/04/20 04:54:13;;;;;;;38.30;20.95;;;;;;;13.96;67.27;100745.53;5044515;28;20098;-82
2023/04/20 04:56:43;;;;;;;38.30;21.75;;;;;;;13.74;67.59;100728.13;5024724;28;20450;-82
2023/04/20 04:59:10;;;;;;;45.40;23.77;;;;;;;13.94;66.93;100734.16;5043490;28;20414;-85
2023/04/20 05:01:36;;;;;;;43.20;23.63;;;;;;;13.29;68.18;100631.25;5040459;28;20067;-82
2023/04/20 05:04:03;;;;;;;45.30;26.92;;;;;;;13.83;67.90;100725.38;5036243;28;20440;-85
2023/04/20 05:06:31;;;;;;;51.78;29.02;;;;;;;13.73;68.92;100721.97;5017567;28;20643;-85
2023/04/20 05:09:03;;;;;;;53.65;29.33;;;;;;;12.85;69.50;100564.53;5045385;28;20043;-85
2023/04/20 05:11:32;;;;;;;52.50;29.98;;;;;;;13.28;69.91;100631.41;5047904;28;20045;-85
2023/04/20 05:13:59;;;;;;;55.22;31.38;;;;;;;13.39;69.40;100631.19;5025582;28;20072;-85
2023/04/20 05:16:26;;;;;;;56.53;31.77;;;;;;;13.29;69.80;100617.94;5043407;28;20052;-86
2023/04/20 05:18:58;;;;;;;56.65;30.75;;;;;;;14.23;70.51;100772.09;5023067;28;20079;-85
2023/04/20 05:21:31;;;;;;;52.45;29.13;;;;;;;14.27;70.32;100778.78;5040384;28;20433;-84
2023/04/20 05:23:58;;;;;;;59.40;30.88;;;;;;;13.79;71.19;100709.88;5035238;28;20048;-83
2023/04/20 05:26:45;;;;;;;59.05;32.15;;;;;;;14.26;71.53;100790.47;5041024;28;20138;-83
2023/04/20 05:29:17;;;;;;;58.67;31.85;;;;;;;14.18;71.31;100773.56;5046804;28;20052;-86
2023/04/20 05:31:48;;;;;;;55.70;31.35;;;;;;;14.35;71.21;100785.19;5044842;28;20071;-83
2023/04/20 05:34:22;;;;;;;64.32;33.10;;;;;;;14.20;71.03;100756.38;5059400;28;20060;-86
2023/04/20 05:36:53;;;;;;;65.22;32.45;;;;;;;14.08;70.85;100730.94;5055113;28;20084;-87
2023/04/20 05:39:20;;;;;;;60.25;33.05;;;;;;;14.63;69.92;100793.91;5036759;28;20059;-84
2023/04/20 05:41:49;;;;;;;59.80;32.83;;;;;;;14.21;70.13;100709.97;5033451;28;20316;-84
2023/04/20 05:44:16;;;;;;;61.65;32.92;;;;;;;13.16;70.47;100548.16;5024565;28;20311;-84
2023/04/20 05:46:53;;;;;;;73.65;34.45;;;;;;;14.44;70.73;100763.72;5025506;28;20513;-82
2023/04/20 05:49:20;;;;;;;56.95;31.90;;;;;;;14.63;70.98;100784.03;5023559;28;20294;-84
2023/04/20 05:51:47;;;;;;;59.42;33.28;;;;;;;14.61;70.59;100774.50;5031546;28;20239;-85
2023/04/20 05:54:14;;;;;;;63.47;33.35;;;;;;;14.50;70.51;100768.41;5041015;28;20049;-83
2023/04/20 05:56:49;;;;;;;56.63;31.85;;;;;;;13.89;71.24;100662.56;5040548;28;20139;-82
2023/04/20 05:59:33;;;;;;;59.15;33.83;;;;;;;14.51;71.38;100745.22;4969408;28;20656;-81
2023/04/20 06:02:01;;;;;;;62.50;33.30;;;;;;;14.60;71.26;100760.31;4970970;28;20491;-84
2023/04/20 06:04:37;;;;;;;66.85;34.42;;;;;;;14.41;70.82;100720.44;4980800;28;20540;-83
2023/04/20 06:07:10;;;;;;;61.17;32.63;;;;;;;14.84;70.40;100786.34;4882083;28;20062;-81
2023/04/20 06:09:41;;;;;;;65.95;33.15;;;;;;;14.75;71.02;100768.56;4967250;28;20170;-83
2023/04/20 06:12:15;;;;;;;58.10;32.08;;;;;;;14.52;70.92;100739.72;4963739;28;20391;-82
2023/04/20 06:14:42;;;;;;;73.93;33.58;;;;;;;14.72;71.24;100772.41;4981521;28;20046;-85
2023/04/20 06:17:09;;;;;;;65.10;34.15;;;;;;;14.71;71.16;100769.91;4986386;28;20167;-84
2023/04/20 06:19:38;;;;;;;68.15;34.30;;;;;;;14.58;70.46;100748.94;4989418;28;20294;-82
2023/04/20 06:22:06;;;;;;;64.80;33.88;;;;;;;14.59;71.33;100777.34;4966411;28;20077;-84
2023/04/20 06:24:37;;;;;;;63.75;36.03;;;;;;;14.53;71.20;100768.13;4974647;28;20527;-85
2023/04/20 06:27:04;;;;;;;62.97;33.88;;;;;;;14.48;71.58;100754.38;4961219;28;20170;-83
2023/04/20 06:29:35;;;;;;;61.72;31.77;;;;;;;14.67;71.48;100774.72;4969037;28;20050;-85
2023/04/20 06:32:02;;;;;;;65.28;35.15;;;;;;;14.96;70.83;100810.94;4961436;28;20777;-82
2023/04/20 06:34:32;;;;;;;65.15;33.22;;;;;;;15.00;71.23;100798.94;4975960;28;20277;-80
2023/04/20 06:36:58;;;;;;;66.93;31.75;;;;;;;15.08;71.14;100807.00;4963654;28;20064;-81
2023/04/20 06:39:25;;;;;;;58.00;32.88;;;;;;;15.03;70.83;100795.13;4961860;28;20054;-82
2023/04/20 06:41:57;;;;;;;70.30;35.50;;;;;;;14.92;70.79;100775.66;4971627;28;20050;-81
2023/04/20 06:44:25;;;;;;;65.07;34.70;;;;;;;14.78;70.79;100757.56;4997469;28;20638;-82
2023/04/20 06:46:55;;;;;;;62.53;32.55;;;;;;;15.16;70.43;100807.00;4978344;28;20050;-82
2023/04/20 06:49:22;;;;;;;63.58;32.35;;;;;;;15.12;70.84;100795.00;4987007;28;20038;-79
2023/04/20 06:51:48;;;;;;;62.38;33.25;;;;;;;15.13;70.78;100810.03;4957451;28;20046;-82
2023/04/20 06:54:15;;;;;;;61.00;33.95;;;;;;;15.16;71.04;100807.00;4958308;28;20046;-81
2023/04/20 06:56:47;;;;;;;63.10;31.85;;;;;;;15.05;70.20;100766.34;4971378;28;20049;-82
2023/04/20 06:59:19;;;;;;;63.25;35.08;;;;;;;15.23;70.39;100790.34;4996632;28;20459;-82
2023/04/20 07:01:47;;;;;;;61.58;33.95;;;;;;;15.47;68.78;100784.22;4980989;28;20131;-79
2023/04/20 07:04:19;;;;;;;58.92;33.85;;;;;;;14.48;69.76;100673.41;4971963;28;20435;-81
2023/04/20 07:06:48;;;;;;;65.20;34.95;;;;;;;15.27;70.16;100808.56;4981810;28;20299;-78
2023/04/20 07:09:18;;;;;;;66.95;34.78;;;;;;;14.93;69.96;100755.97;4979121;28;20045;-81
2023/04/20 07:11:55;;;;;;;67.25;35.53;;;;;;;15.26;70.30;100816.75;4997380;28;20350;-82
2023/04/20 07:14:22;;;;;;;55.80;32.97;;;;;;;15.09;70.61;100794.47;4989865;28;20554;-82
2023/04/20 07:16:54;;;;;;;60.50;33.50;;;;;;;15.25;69.94;100793.69;4974274;28;20485;-80
2023/04/20 07:19:23;;;;;;;59.58;32.85;;;;;;;15.15;70.32;100788.47;4991306;28;20054;-80
2023/04/20 07:21:50;;;;;;;62.40;34.72;;;;;;;15.23;70.14;100814.41;4983814;28;20053;-82
2023/04/20 07:24:17;;;;;;;58.08;32.15;;;;;;;15.24;70.19;100805.38;4920691;28;20062;-83
2023/04/20 07:26:54;;;;;;;55.45;31.00;;;;;;;15.10;69.30;100775.59;4943719;28;20054;-79
2023/04/20 07:29:29;;;;;;;60.20;31.50;;;;;;;15.25;69.36;100788.34;4964195;28;20085;-84
2023/04/20 07:32:03;;;;;;;56.15;31.95;;;;;;;15.17;68.94;100749.88;4960616;28;20119;-80
2023/04/20 07:34:33;;;;;;;62.50;32.75;;;;;;;15.45;69.61;100808.44;4989566;28;20284;-82
2023/04/20 07:37:02;;;;;;;60.50;34.17;;;;;;;15.55;68.98;100801.09;4954526;28;20271;-82
2023/04/20 07:39:29;;;;;;;60.33;34.88;;;;;;;15.17;69.43;100773.94;4968541;28;20078;-82
2023/04/20 07:42:08;;;;;;;63.95;33.67;;;;;;;15.39;68.98;100785.88;4920419;28;20136;-80
2023/04/20 07:44:35;;;;;;;57.03;32.22;;;;;;;15.49;69.17;100809.81;4963413;28;20204;-79
2023/04/20 07:47:05;;;;;;;57.65;32.03;;;;;;;15.22;68.74;100736.03;4996364;28;20296;-82
2023/04/20 07:49:36;;;;;;;63.08;34.58;;;;;;;15.45;69.00;100796.91;4978766;28;20053;-83
2023/04/20 07:52:04;;;;;;;63.47;32.38;;;;;;;15.51;68.82;100782.88;4971795;28;20093;-82
2023/04/20 07:54:46;;;;;;;55.03;30.70;;;;;;;14.81;68.24;100661.06;4989193;28;20049;-82
2023/04/20 07:57:19;;;;;;;59.78;34.00;;;;;;;15.47;67.82;100760.97;4991897;28;20046;-84
2023/04/20 07:59:46;;;;;;;51.47;30.17;;;;;;;15.65;67.75;100773.38;4987133;28;20054;-83
2023/04/20 08:02:25;;;;;;;51.83;31.20;;;;;;;15.71;67.52;100770.09;4927273;28;20547;-78
2023/04/20 08:05:27;;;;;;;55.65;32.35;;;;;;;15.78;67.81;100796.00;4934929;28;20085;-79
2023/04/20 08:08:04;;;;;;;49.35;29.50;;;;;;;15.74;67.82;100772.41;4964699;28;20060;-82
2023/04/20 08:10:36;;;;;;;55.67;30.95;;;;;;;15.91;67.26;100773.25;4982062;28;20054;-82
2023/04/20 08:13:02;;;;;;;50.78;31.42;;;;;;;15.78;67.16;100755.84;4985302;28;20073;-82
2023/04/20 08:15:43;;;;;;;63.30;32.38;;;;;;;16.15;66.68;100793.84;4931076;28;20046;-82
2023/04/20 08:18:10;;;;;;;48.10;29.17;;;;;;;15.99;67.12;100774.09;4963950;28;20050;-80
2023/04/20 08:20:37;;;;;;;51.78;30.60;;;;;;;16.16;66.90;100795.50;4970797;28;20085;-80
2023/04/20 08:23:04;;;;;;;47.85;28.27;;;;;;;16.12;66.44;100783.47;4967471;28;20057;-80
2023/04/20 08:25:31;;;;;;;45.90;27.13;;;;;;;15.55;66.04;100670.00;4965705;28;20055;-82
2023/04/20 08:28:00;;;;;;;40.10;26.20;;;;;;;16.56;64.75;100793.81;4965553;28;20086;-82
2023/04/20 08:30:34;;;;;;;49.03;27.67;;;;;;;15.86;65.17;100685.41;4967071;28;20082;-80
2023/04/20 08:33:29;;;;;;;50.42;28.20;;;;;;;15.08;64.19;100569.03;4999373;28;20306;-83
2023/04/20 08:35:55;;;;;;;48.17;26.73;;;;;;;16.51;64.03;100785.44;4993656;28;20053;-82
2023/04/20 08:38:46;;;;;;;45.25;26.17;;;;;;;16.49;63.01;100756.13;5015091;28;20049;-81
2023/04/20 08:41:22;;;;;;;45.75;26.00;;;;;;;16.74;63.33;100812.34;4947095;28;20052;-84
2023/04/20 08:43:55;;;;;;;45.40;26.10;;;;;;;16.81;63.33;100811.50;4995032;28;20057;-80
2023/04/20 08:46:23;;;;;;;40.95;25.00;;;;;;;16.64;63.47;100775.00;5010398;28;20060;-80
2023/04/20 08:49:13;;;;;;;37.92;25.40;;;;;;;17.01;62.82;100816.47;4926652;28;20384;-78
2023/04/20 08:52:00;;;;;;;36.65;24.10;;;;;;;16.76;62.73;100768.28;4971198;28;20450;-82
2023/04/20 08:54:27;;;;;;;40.28;25.02;;;;;;;17.13;61.71;100782.91;5001417;28;20061;-82
2023/04/20 08:56:58;;;;;;;39.22;24.83;;;;;;;17.34;61.30;100809.13;4923899;28;20058;-82
2023/04/20 08:59:26;;;;;;;37.42;23.63;;;;;;;17.26;61.63;100817.22;4986260;28;20042;-82
2023/04/20 09:01:53;;;;;;;39.50;24.10;;;;;;;17.25;62.22;100818.22;5013883;28;20670;-82
2023/04/20 09:04:25;;;;;;;33.67;21.67;;;;;;;17.27;62.39;100813.53;5020559;28;20060;-82
2023/04/20 09:06:58;;;;;;;38.33;23.02;;;;;;;17.40;61.69;100813.78;5030410;28;20103;-79
2023/04/20 09:09:26;;;;;;;40.17;23.30;;;;;;;17.39;62.00;100811.28;5024470;28;20119;-81
2023/04/20 09:12:05;;;;;;;37.38;23.42;;;;;;;17.48;61.93;100812.91;5016998;28;20286;-81
2023/04/20 09:15:03;;;;;;;35.65;23.00;;;;;;;17.30;62.06;100792.53;5012812;28;20458;-81
2023/04/20 09:17:40;;;;;;;35.72;22.25;;;;;;;17.44;61.58;100807.06;4991605;28;20052;-82
2023/04/20 09:20:10;;;;;;;38.40;22.83;;;;;;;17.05;61.65;100748.06;5005545;28;20148;-81
2023/04/20 09:22:44;;;;;;;36.20;22.02;;;;;;;17.36;61.79;100784.81;4988675;28;20296;-80
2023/04/20 09:25:20;;;;;;;39.92;23.48;;;;;;;17.49;61.41;100798.47;4974064;28;20307;-81
2023/04/20 09:28:10;;;;;;;41.45;24.65;;;;;;;17.51;60.95;100773.13;4967427;28;20149;-80
2023/04/20 09:30:39;;;;;;;37.25;21.25;;;;;;;17.51;61.43;100793.78;4972864;28;20050;-81
2023/04/20 09:33:11;;;;;;;33.97;19.33;;;;;;;17.48;62.02;100794.13;4971533;28;20296;-79
2023/04/20 09:35:44;;;;;;;34.53;20.70;;;;;;;17.36;61.36;100752.63;4973449;28;20697;-78
2023/04/20 09:38:15;;;;;;;34.95;19.85;;;;;;;17.70;61.40;100782.56;4974519;28;20516;-83
2023/04/20 09:40:52;;;;;;;32.63;20.30;;;;;;;17.86;60.52;100786.19;4976527;28;20049;-82
2023/04/20 09:43:23;;;;;;;28.67;18.60;;;;;;;17.78;60.51;100764.72;5007782;28;20185;-82
2023/04/20 09:46:03;;;;;;;33.28;20.38;;;;;;;17.90;60.26;100779.44;4995055;28;20324;-83
2023/04/20 09:48:30;;;;;;;28.92;18.55;;;;;;;17.93;60.37;100787.13;4981416;28;20531;-80
2023/04/20 09:51:07;;;;;;;29.98;19.40;;;;;;;17.97;59.44;100780.38;4997992;28;20057;-83
2023/04/20 09:53:35;;;;;;;25.80;18.10;;;;;;;18.00;59.59;100787.25;4990580;28;20060;-81
2023/04/20 09:56:08;;;;;;;28.67;18.90;;;;;;;18.09;59.21;100787.00;4993082;28;20065;-81
2023/04/20 09:58:36;;;;;;;29.40;18.83;;;;;;;18.25;58.22;100772.56;4995752;28;20054;-82
2023/04/20 10:01:10;;;;;;;37.17;18.83;;;;;;;18.21;58.26;100744.41;5000331;28;20104;-83
2023/04/20 10:03:52;;;;;;;25.50;16.58;;;;;;;18.57;57.48;100763.34;5003623;28;20088;-80
2023/04/20 10:06:35;;;;;;;27.98;15.80;;;;;;;18.27;57.73;100671.09;4998000;28;20518;-79
2023/04/20 10:09:07;;;;;;;25.02;16.55;;;;;;;18.80;55.59;100676.38;4931488;28;20504;-84
2023/04/20 10:11:42;;;;;;;26.80;16.65;;;;;;;19.24;53.94;100758.03;4989836;28;20327;-82
2023/04/20 10:14:22;;;;;;;24.13;15.27;;;;;;;19.39;53.99;100766.88;4987294;28;20492;-83
2023/04/20 10:17:05;;;;;;;22.73;14.85;;;;;;;19.32;53.80;100765.97;5004281;28;20163;-82
2023/04/20 10:19:43;;;;;;;23.33;14.20;;;;;;;19.24;53.39;100745.41;5025194;28;20522;-80
2023/04/20 10:22:12;;;;;;;24.33;14.30;;;;;;;19.20;53.58;100727.97;5024554;28;20103;-79
2023/04/20 10:24:42;;;;;;;20.63;13.52;;;;;;;19.48;53.20;100775.69;5000369;28;20133;-80
2023/04/20 10:27:19;;;;;;;18.92;13.95;;;;;;;19.43;52.98;100762.81;5010552;28;20158;-81
2023/04/20 10:29:49;;;;;;;23.55;13.82;;;;;;;19.58;53.01;100768.13;5010915;28;20638;-80
2023/04/20 10:32:27;;;;;;;18.27;13.32;;;;;;;19.53;52.63;100757.09;5015063;28;20053;-81
2023/04/20 10:35:09;;;;;;;17.85;11.60;;;;;;;19.55;53.37;100750.50;5007639;28;20041;-82
2023/04/20 10:37:49;;;;;;;20.33;14.07;;;;;;;19.59;53.36;100767.94;5003337;28;20052;-81
2023/04/20 10:40:25;;;;;;;21.25;14.20;;;;;;;19.31;53.39;100740.94;4990491;28;20056;-80
2023/04/20 10:42:58;;;;;;;22.40;14.18;;;;;;;19.39;53.76;100751.59;5021550;28;20319;-82
2023/04/20 10:45:35;;;;;;;18.70;12.35;;;;;;;19.31;53.85;100726.63;5028231;28;20054;-82
2023/04/20 10:48:09;;;;;;;17.02;11.50;;;;;;;19.11;53.83;100689.59;5007590;28;20054;-80
2023/04/20 10:50:39;;;;;;;19.45;11.50;;;;;;;19.28;53.53;100702.81;5009811;28;20049;-79
2023/04/20 10:53:22;;;;;;;17.60;11.75;;;;;;;19.57;53.09;100734.16;5006410;28;20056;-81
2023/04/20 10:56:01;;;;;;;16.70;11.23;;;;;;;19.77;52.99;100731.69;5006187;28;20057;-82
2023/04/20 10:58:29;;;;;;;17.02;11.35;;;;;;;19.54;52.71;100667.22;5006095;28;20049;-82
2023/04/20 11:01:02;;;;;;;17.35;10.48;;;;;;;20.01;52.13;100708.88;5003601;28;20269;-82
2023/04/20 11:03:31;;;;;;;16.08;11.68;;;;;;;18.96;51.89;100520.16;5003459;28;20041;-81
2023/04/20 11:06:14;;;;;;;15.55;11.05;;;;;;;19.73;52.27;100663.88;5004351;28;20081;-81
2023/04/20 11:08:42;;;;;;;19.13;11.65;;;;;;;20.09;52.22;100718.66;5008193;28;20045;-81
2023/04/20 11:11:29;;;;;;;13.93;9.73;;;;;;;19.76;52.23;100639.28;4992352;28;20511;-81
2023/04/20 11:14:09;;;;;;;16.00;9.95;;;;;;;20.23;51.39;100709.66;5002971;28;20049;-79
2023/04/20 11:16:37;;;;;;;14.30;10.50;;;;;;;20.16;51.79;100709.59;4991741;28;20054;-79
2023/04/20 11:19:37;;;;;;;17.50;10.90;;;;;;;19.74;51.43;100630.56;4994497;28;20050;-81
2023/04/20 11:22:07;;;;;;;16.52;11.45;;;;;;;20.16;51.59;100711.47;4965485;28;20108;-79
2023/04/20 11:24:56;;;;;;;15.40;9.75;;;;;;;19.94;52.14;100681.06;5001628;28;20065;-80
2023/04/20 11:27:29;;;;;;;15.10;10.43;;;;;;;19.87;52.68;100655.91;4988639;28;20311;-81
2023/04/20 11:30:04;;;;;;;14.98;8.75;;;;;;;20.21;51.40;100669.41;4982361;28;20046;-81